Time;durP1;ratioP1;P1;durP2;ratioP2;P2;SDS_P1;SDS_P2;PMS_P1;PMS_P2;Temp;Humidity;BMP_temperature;BMP_pressure;BME280_temperature;BME280_humidity;BME280_pressure;Samples;Min_cycle;Max_cycle;Signal;HPM_P1;HPM_P2
2023/06/16 00:02:08;;;;;;;14.07;1.90;;;38.40;28.00;;;;;;5088364;28;20078;-66
2023/06/16 00:04:35;;;;;;;9.25;1.92;;;38.40;28.30;;;;;;5089152;28;20035;-65
2023/06/16 00:07:01;;;;;;;19.77;2.10;;;38.30;28.20;;;;;;5091503;28;20016;-66
2023/06/16 00:09:28;;;;;;;12.50;1.80;;;38.30;28.20;;;;;;5091496;28;20157;-64
2023/06/16 00:11:55;;;;;;;27.75;8.55;;;38.20;28.10;;;;;;5090296;28;20024;-68
2023/06/16 00:14:21;;;;;;;29.75;9.68;;;38.20;28.30;;;;;;5095169;28;20027;-66
2023/06/16 00:16:49;;;;;;;26.30;11.43;;;38.30;28.70;;;;;;5097435;28;20511;-66
2023/06/16 00:19:17;;;;;;;10.13;2.30;;;38.20;28.60;;;;;;5092157;28;20081;-66
2023/06/16 00:21:45;;;;;;;12.82;2.28;;;38.30;28.60;;;;;;5097505;28;20053;-67
2023/06/16 00:24:12;;;;;;;8.98;2.22;;;38.20;28.20;;;;;;5093158;28;20085;-69
2023/06/16 00:26:38;;;;;;;20.15;2.63;;;38.10;28.10;;;;;;5096173;28;20065;-68
2023/06/16 00:29:07;;;;;;;12.20;2.47;;;37.90;28.30;;;;;;5098778;28;20012;-68
2023/06/16 00:31:34;;;;;;;13.88;2.63;;;37.70;28.70;;;;;;5092332;28;20389;-69
2023/06/16 00:34:01;;;;;;;18.80;2.60;;;37.50;28.70;;;;;;5099040;28;20036;-70
2023/06/16 00:36:27;;;;;;;1372.35;116.53;;;37.40;28.80;;;;;;5100781;28;20030;-68
2023/06/16 00:38:54;;;;;;;48.00;5.07;;;37.30;29.40;;;;;;5092508;28;20044;-70
2023/06/16 00:41:20;;;;;;;20.60;3.17;;;37.10;29.60;;;;;;5093436;28;20106;-71
2023/06/16 00:43:46;;;;;;;22.13;3.17;;;37.00;29.80;;;;;;5097602;28;20020;-68
2023/06/16 00:46:35;;;;;;;17.17;4.15;;;37.10;30.00;;;;;;5088819;28;20020;-69
2023/06/16 00:49:02;;;;;;;12.13;3.03;;;37.10;29.40;;;;;;5087553;28;20473;-69
2023/06/16 00:51:30;;;;;;;22.17;3.25;;;37.00;30.00;;;;;;5091966;28;20105;-65
2023/06/16 00:53:57;;;;;;;10.32;2.53;;;37.00;29.40;;;;;;5090128;28;20098;-68
2023/06/16 00:56:24;;;;;;;18.30;7.57;;;36.90;29.60;;;;;;5095565;28;20059;-70
2023/06/16 00:58:52;;;;;;;20.80;11.02;;;37.00;29.80;;;;;;5108666;28;20114;-70
2023/06/16 01:01:19;;;;;;;26.98;10.30;;;37.10;30.00;;;;;;5098526;28;20498;-68
2023/06/16 01:03:46;;;;;;;17.00;8.73;;;37.00;30.00;;;;;;5092320;28;20484;-70
2023/06/16 01:06:41;;;;;;;18.38;9.10;;;37.10;30.10;;;;;;5095954;28;20390;-68
2023/06/16 01:09:34;;;;;;;22.23;9.38;;;37.00;30.20;;;;;;5094118;28;20024;-68
2023/06/16 01:12:11;;;;;;;24.17;9.75;;;37.00;29.90;;;;;;5095220;28;20043;-70
2023/06/16 01:14:44;;;;;;;14.73;2.30;;;36.90;29.90;;;;;;5095366;28;20043;-69
2023/06/16 01:17:12;;;;;;;10.50;2.42;;;36.90;30.20;;;;;;5090613;28;20028;-65
2023/06/16 01:19:50;;;;;;;6.85;2.30;;;36.90;30.00;;;;;;5092197;28;20168;-66
2023/06/16 01:22:43;;;;;;;9.05;2.40;;;36.80;30.00;;;;;;5093239;28;20034;-64
2023/06/16 01:25:14;;;;;;;5.93;2.50;;;36.70;30.00;;;;;;5091459;28;20056;-65
2023/06/16 01:27:47;;;;;;;7.18;1.98;;;36.60;30.00;;;;;;5092830;28;20033;-66
2023/06/16 01:30:16;;;;;;;15.05;2.78;;;36.50;30.00;;;;;;5091089;28;20027;-67
2023/06/16 01:32:45;;;;;;;8.95;2.42;;;36.60;30.90;;;;;;5102734;28;20097;-70
2023/06/16 01:35:12;;;;;;;9.57;2.35;;;36.50;30.60;;;;;;5094115;28;20108;-67
2023/06/16 01:37:40;;;;;;;10.13;3.08;;;36.50;31.10;;;;;;5094713;28;20032;-65
2023/06/16 01:40:07;;;;;;;14.27;2.42;;;36.30;30.60;;;;;;5094690;28;20024;-65
2023/06/16 01:42:35;;;;;;;9.30;2.67;;;36.30;31.00;;;;;;5093658;28;20045;-67
2023/06/16 01:45:03;;;;;;;11.88;2.45;;;36.20;30.80;;;;;;5095517;28;20033;-69
2023/06/16 01:47:30;;;;;;;17.02;2.50;;;36.10;30.40;;;;;;5092411;28;20067;-64
2023/06/16 01:49:57;;;;;;;26.15;2.55;;;36.00;29.80;;;;;;5092647;28;20028;-67
2023/06/16 01:52:23;;;;;;;23.30;2.35;;;35.90;30.40;;;;;;5091117;28;20092;-65
2023/06/16 01:54:50;;;;;;;12.20;2.58;;;35.90;29.70;;;;;;5092180;28;20155;-64
2023/06/16 01:57:16;;;;;;;10.88;2.13;;;35.80;30.20;;;;;;5097293;28;20050;-67
2023/06/16 01:59:44;;;;;;;27.35;2.65;;;35.80;30.50;;;;;;5089811;28;20054;-67
2023/06/16 02:02:19;;;;;;;28.38;2.60;;;35.60;29.80;;;;;;5090881;28;20103;-67
2023/06/16 02:04:51;;;;;;;26.92;2.88;;;35.60;29.50;;;;;;5090166;28;20055;-68
2023/06/16 02:07:30;;;;;;;21.98;3.33;;;35.40;29.20;;;;;;5090730;28;20043;-67
2023/06/16 02:09:58;;;;;;;22.55;3.65;;;35.30;29.20;;;;;;5093822;28;20084;-66
2023/06/16 02:12:25;;;;;;;30.38;2.45;;;35.30;29.40;;;;;;5092918;28;20118;-68
2023/06/16 02:14:52;;;;;;;12.25;1.70;;;35.20;29.30;;;;;;5090536;28;20097;-65
2023/06/16 02:17:19;;;;;;;15.32;1.73;;;35.10;29.40;;;;;;5084885;28;20042;-67
2023/06/16 02:19:45;;;;;;;16.70;1.90;;;35.00;29.80;;;;;;5087493;28;20505;-66
2023/06/16 02:22:11;;;;;;;27.00;2.78;;;34.90;30.20;;;;;;5081404;28;20042;-70
2023/06/16 02:24:38;;;;;;;40.08;3.78;;;34.80;29.70;;;;;;5088353;28;20159;-67
2023/06/16 02:27:05;;;;;;;30.45;2.97;;;34.70;29.40;;;;;;5088082;28;20045;-68
2023/06/16 02:29:31;;;;;;;28.88;3.67;;;34.70;28.90;;;;;;5088403;28;20048;-63
2023/06/16 02:31:57;;;;;;;30.23;2.45;;;34.70;29.10;;;;;;5085296;28;20408;-61
2023/06/16 02:34:24;;;;;;;54.55;4.82;;;34.60;28.60;;;;;;5088162;28;20077;-58
2023/06/16 02:36:51;;;;;;;12.05;2.22;;;34.40;28.80;;;;;;5092967;28;20100;-58
2023/06/16 02:39:18;;;;;;;21.73;2.70;;;34.30;28.70;;;;;;5083899;28;20075;-58
2023/06/16 02:41:45;;;;;;;20.55;2.60;;;34.30;28.90;;;;;;5069853;28;20128;-56
2023/06/16 02:44:12;;;;;;;35.47;2.70;;;34.20;29.00;;;;;;5089936;28;20064;-59
2023/06/16 02:46:38;;;;;;;18.27;2.33;;;34.10;29.00;;;;;;5084475;28;20051;-57
2023/06/16 02:49:05;;;;;;;19.67;2.30;;;34.00;29.10;;;;;;5095230;28;20134;-57
2023/06/16 02:51:31;;;;;;;25.35;2.80;;;34.00;29.30;;;;;;5091100;28;20061;-57
2023/06/16 02:54:00;;;;;;;22.77;2.47;;;33.90;29.40;;;;;;5092847;28;20410;-57
2023/06/16 02:56:28;;;;;;;12.57;2.30;;;33.80;29.70;;;;;;5095012;28;20102;-57
2023/06/16 02:58:55;;;;;;;54.40;2.40;;;33.80;29.40;;;;;;5096398;28;20113;-57
2023/06/16 03:01:24;;;;;;;18.15;3.05;;;33.70;29.10;;;;;;5090018;28;20048;-58
2023/06/16 03:03:51;;;;;;;25.15;2.35;;;33.70;29.30;;;;;;5091855;28;20057;-58
2023/06/16 03:06:19;;;;;;;20.83;2.88;;;33.60;28.80;;;;;;5094430;28;20054;-56
2023/06/16 03:08:46;;;;;;;31.08;2.60;;;33.60;28.90;;;;;;5099983;28;20095;-58
2023/06/16 03:11:12;;;;;;;39.70;3.88;;;33.50;28.50;;;;;;5094788;28;20044;-55
2023/06/16 03:13:39;;;;;;;29.48;2.58;;;33.40;28.20;;;;;;5094260;28;20056;-62
2023/06/16 03:16:06;;;;;;;23.35;2.88;;;33.30;28.30;;;;;;5095221;28;20061;-53
2023/06/16 03:18:33;;;;;;;29.05;3.83;;;33.30;28.30;;;;;;5092850;28;20052;-58
2023/06/16 03:21:01;;;;;;;22.23;3.03;;;33.20;28.00;;;;;;5088567;28;20064;-55
2023/06/16 03:23:28;;;;;;;23.58;2.78;;;33.20;28.20;;;;;;5095538;28;20147;-58
2023/06/16 03:25:54;;;;;;;11.82;2.67;;;33.00;28.30;;;;;;5092995;28;20052;-58
2023/06/16 03:28:21;;;;;;;23.33;2.97;;;32.90;28.40;;;;;;5090868;28;20191;-58
2023/06/16 03:30:47;;;;;;;19.73;2.80;;;32.80;28.10;;;;;;5088283;28;20058;-57
2023/06/16 03:33:14;;;;;;;25.27;2.75;;;32.70;28.10;;;;;;5088336;28;20131;-59
2023/06/16 03:35:40;;;;;;;33.08;2.78;;;32.70;28.40;;;;;;5092213;28;20090;-58
2023/06/16 03:38:06;;;;;;;45.45;4.65;;;32.60;28.20;;;;;;5091876;28;20042;-59
2023/06/16 03:40:33;;;;;;;24.13;3.20;;;32.50;28.30;;;;;;5093010;28;20406;-57
2023/06/16 03:42:59;;;;;;;29.77;3.05;;;32.50;28.20;;;;;;5090842;28;20290;-59
2023/06/16 03:45:26;;;;;;;20.27;2.67;;;32.40;27.90;;;;;;5092339;28;20044;-60
2023/06/16 03:47:52;;;;;;;20.73;2.83;;;32.40;28.30;;;;;;5090318;28;20129;-59
2023/06/16 03:50:18;;;;;;;17.33;2.33;;;32.40;28.10;;;;;;5097304;28;20051;-59
2023/06/16 03:52:45;;;;;;;22.70;3.60;;;32.30;28.00;;;;;;5096530;28;20049;-61
2023/06/16 03:55:13;;;;;;;18.25;3.05;;;32.30;27.70;;;;;;5098161;28;20092;-61
2023/06/16 03:57:40;;;;;;;17.98;3.03;;;32.30;27.80;;;;;;5097675;28;20076;-60
2023/06/16 04:00:08;;;;;;;17.67;2.13;;;32.10;27.80;;;;;;5093407;28;20061;-60
2023/06/16 04:02:36;;;;;;;17.92;2.70;;;32.10;28.00;;;;;;5093646;28;20079;-60
2023/06/16 04:05:03;;;;;;;25.92;2.50;;;32.10;28.20;;;;;;5092232;28;20577;-62
2023/06/16 04:07:30;;;;;;;20.33;2.20;;;32.00;28.00;;;;;;5099839;28;20068;-63
2023/06/16 04:09:56;;;;;;;12.73;1.77;;;31.90;28.10;;;;;;5100323;28;20056;-61
2023/06/16 04:12:23;;;;;;;9.63;1.83;;;31.90;28.40;;;;;;5096797;28;20437;-61
2023/06/16 04:14:49;;;;;;;12.38;2.30;;;31.80;28.80;;;;;;5096632;28;20146;-61
2023/06/16 04:17:16;;;;;;;11.25;2.15;;;31.80;28.80;;;;;;5091512;28;20063;-63
2023/06/16 04:19:43;;;;;;;11.30;2.10;;;31.70;28.80;;;;;;5093300;28;20049;-61
2023/06/16 04:22:09;;;;;;;11.88;2.03;;;31.80;30.00;;;;;;5096185;28;20078;-62
2023/06/16 04:24:35;;;;;;;11.10;1.83;;;31.70;29.30;;;;;;5096795;28;20131;-62
2023/06/16 04:27:02;;;;;;;23.20;2.75;;;31.70;29.70;;;;;;5099347;28;20056;-62
2023/06/16 04:29:29;;;;;;;13.13;2.60;;;31.60;29.50;;;;;;5096146;28;20047;-61
2023/06/16 04:32:00;;;;;;;12.43;2.97;;;31.60;29.50;;;;;;5099934;28;20463;-61
2023/06/16 04:34:31;;;;;;;13.18;2.42;;;31.50;30.20;;;;;;5098148;28;20502;-62
2023/06/16 04:36:57;;;;;;;12.68;2.40;;;31.40;30.20;;;;;;5099167;28;20070;-61
2023/06/16 04:39:24;;;;;;;12.73;2.78;;;31.40;30.00;;;;;;5101510;28;20052;-63
2023/06/16 04:41:51;;;;;;;10.75;3.72;;;31.40;30.00;;;;;;5091632;28;20054;-62
2023/06/16 04:44:17;;;;;;;13.90;4.05;;;31.30;30.00;;;;;;5093909;28;20498;-62
2023/06/16 04:46:44;;;;;;;21.33;5.78;;;31.30;31.20;;;;;;5091990;28;20068;-62
2023/06/16 04:49:10;;;;;;;23.05;6.35;;;31.30;31.20;;;;;;5098421;28;20136;-62
2023/06/16 04:51:37;;;;;;;22.77;5.82;;;31.30;31.10;;;;;;5095266;28;20504;-61
2023/06/16 04:54:03;;;;;;;19.17;5.78;;;31.30;30.90;;;;;;5097579;28;20181;-62
2023/06/16 04:56:30;;;;;;;19.65;4.97;;;31.20;31.30;;;;;;5097543;28;20070;-62
2023/06/16 04:58:56;;;;;;;15.32;3.30;;;31.10;32.20;;;;;;5094507;28;20051;-63
2023/06/16 05:01:26;;;;;;;19.50;3.35;;;31.00;34.40;;;;;;5098041;28;20445;-61
2023/06/16 05:03:54;;;;;;;19.75;3.30;;;31.00;35.90;;;;;;5099004;28;20128;-66
2023/06/16 05:06:21;;;;;;;15.90;3.03;;;30.90;37.60;;;;;;5089855;28;20055;-61
2023/06/16 05:08:47;;;;;;;11.82;3.33;;;30.90;38.30;;;;;;5090711;28;20055;-62
2023/06/16 05:11:14;;;;;;;31.48;4.22;;;30.80;39.10;;;;;;5096333;28;20062;-61
2023/06/16 05:13:40;;;;;;;14.57;3.20;;;30.70;39.20;;;;;;5090086;28;20153;-62
2023/06/16 05:16:06;;;;;;;11.50;3.05;;;30.70;39.80;;;;;;5088430;28;20064;-60
2023/06/16 05:18:33;;;;;;;15.15;3.55;;;30.60;40.50;;;;;;5086819;28;20066;-61
2023/06/16 05:20:59;;;;;;;20.98;4.15;;;30.50;40.40;;;;;;5088539;28;20411;-57
2023/06/16 05:23:26;;;;;;;25.13;4.18;;;30.40;40.50;;;;;;5088697;28;20571;-62
2023/06/16 05:25:53;;;;;;;13.85;3.55;;;30.40;41.20;;;;;;5086877;28;20057;-59
2023/06/16 05:28:19;;;;;;;10.48;3.17;;;30.30;40.90;;;;;;5086468;28;20060;-61
2023/06/16 05:30:46;;;;;;;8.00;4.13;;;30.30;41.20;;;;;;5091484;28;20377;-62
2023/06/16 05:33:13;;;;;;;24.90;16.55;;;30.20;41.10;;;;;;5085465;28;20053;-64
2023/06/16 05:35:39;;;;;;;20.38;10.07;;;30.20;41.60;;;;;;5085801;28;20089;-63
2023/06/16 05:38:05;;;;;;;5.63;3.35;;;30.10;42.00;;;;;;5092410;28;20078;-60
2023/06/16 05:40:32;;;;;;;8.55;3.03;;;30.10;41.70;;;;;;5072535;28;20069;-61
2023/06/16 05:42:58;;;;;;;6.80;3.00;;;30.10;41.80;;;;;;5088621;28;20162;-61
2023/06/16 05:45:25;;;;;;;4.18;2.65;;;30.10;42.10;;;;;;5086776;28;20078;-64
2023/06/16 05:47:51;;;;;;;12.40;3.38;;;30.00;42.30;;;;;;5090746;28;20071;-63
2023/06/16 05:50:17;;;;;;;7.25;2.53;;;30.00;42.30;;;;;;5088448;28;20072;-64
2023/06/16 05:52:44;;;;;;;10.50;2.78;;;29.90;42.70;;;;;;5089914;28;20543;-64
2023/06/16 05:55:11;;;;;;;7.35;2.70;;;29.80;42.70;;;;;;5096633;28;20099;-63
2023/06/16 05:57:37;;;;;;;11.45;2.72;;;29.80;42.80;;;;;;5096667;28;20123;-62
2023/06/16 06:00:06;;;;;;;9.18;3.08;;;29.80;43.30;;;;;;5097159;28;20129;-63
2023/06/16 06:02:32;;;;;;;7.93;3.05;;;29.80;42.90;;;;;;5095277;28;20070;-63
2023/06/16 06:05:00;;;;;;;9.55;3.13;;;29.70;43.00;;;;;;5095602;28;20099;-61
2023/06/16 06:07:27;;;;;;;8.93;2.95;;;29.70;43.00;;;;;;5092035;28;20094;-61
2023/06/16 06:09:54;;;;;;;6.85;2.90;;;29.60;43.00;;;;;;5094785;28;20061;-62
2023/06/16 06:12:21;;;;;;;12.82;2.78;;;29.60;43.20;;;;;;5092275;28;20503;-62
2023/06/16 06:14:47;;;;;;;8.02;3.05;;;29.60;43.30;;;;;;5092657;28;20157;-62
2023/06/16 06:17:14;;;;;;;4.22;2.55;;;29.50;43.50;;;;;;5094629;28;20524;-61
2023/06/16 06:19:40;;;;;;;9.07;3.40;;;29.50;44.10;;;;;;5091641;28;20069;-62
2023/06/16 06:22:06;;;;;;;6.40;3.00;;;29.50;43.70;;;;;;5096340;28;20128;-61
2023/06/16 06:24:33;;;;;;;7.63;2.47;;;29.50;43.70;;;;;;5093895;28;20076;-64
2023/06/16 06:26:59;;;;;;;6.45;2.53;;;29.50;43.70;;;;;;5090173;28;20088;-61
2023/06/16 06:29:26;;;;;;;9.35;2.90;;;29.50;43.70;;;;;;5093946;28;20066;-60
2023/06/16 06:31:52;;;;;;;12.23;2.25;;;29.50;44.20;;;;;;5092383;28;20195;-61
2023/06/16 06:34:19;;;;;;;4.75;2.38;;;29.30;43.90;;;;;;5097203;28;20100;-61
2023/06/16 06:36:47;;;;;;;6.47;2.83;;;29.40;44.20;;;;;;5090595;28;20479;-60
2023/06/16 06:39:14;;;;;;;5.72;2.13;;;29.30;44.80;;;;;;5101415;28;20068;-61
2023/06/16 06:41:40;;;;;;;9.73;2.40;;;29.30;45.40;;;;;;5097431;28;20583;-61
2023/06/16 06:44:06;;;;;;;8.48;2.53;;;29.30;46.00;;;;;;5091400;28;20118;-63
2023/06/16 06:46:34;;;;;;;6.35;2.30;;;29.20;46.00;;;;;;5086695;28;20062;-61
2023/06/16 06:49:00;;;;;;;3.88;2.53;;;29.10;46.40;;;;;;5093118;28;20088;-63
2023/06/16 06:51:27;;;;;;;8.13;2.65;;;29.00;46.50;;;;;;5086823;28;20065;-62
2023/06/16 06:53:54;;;;;;;9.18;2.60;;;29.00;46.50;;;;;;5095485;28;20098;-61
2023/06/16 06:56:22;;;;;;;13.50;2.40;;;28.90;46.90;;;;;;5095389;28;20120;-62
2023/06/16 06:58:49;;;;;;;13.07;2.42;;;28.90;46.60;;;;;;5087274;28;20181;-61
2023/06/16 07:01:15;;;;;;;5.10;2.35;;;28.80;46.80;;;;;;5097586;28;20071;-62
2023/06/16 07:03:42;;;;;;;5.75;2.30;;;28.80;47.10;;;;;;5091209;28;20084;-61
2023/06/16 07:06:09;;;;;;;8.38;2.35;;;28.70;47.40;;;;;;5090657;28;20441;-61
2023/06/16 07:08:35;;;;;;;10.05;2.28;;;28.70;47.20;;;;;;5089216;28;20525;-62
2023/06/16 07:11:02;;;;;;;8.52;2.80;;;28.60;47.80;;;;;;5087323;28;20070;-61
2023/06/16 07:13:28;;;;;;;7.30;2.25;;;28.50;48.40;;;;;;5087657;28;20081;-62
2023/06/16 07:15:55;;;;;;;5.22;2.50;;;28.30;48.60;;;;;;5089259;28;20081;-61
2023/06/16 07:18:21;;;;;;;7.90;2.63;;;28.30;48.50;;;;;;5089506;28;20071;-60
2023/06/16 07:20:48;;;;;;;10.35;2.60;;;28.30;48.40;;;;;;5086540;28;20132;-63
2023/06/16 07:23:14;;;;;;;8.95;2.85;;;28.20;48.40;;;;;;5088755;28;20073;-61
2023/06/16 07:25:41;;;;;;;8.85;2.10;;;28.20;48.70;;;;;;5090552;28;20077;-62
2023/06/16 07:28:07;;;;;;;20.23;9.10;;;28.10;48.60;;;;;;5090907;28;20124;-62
2023/06/16 07:30:34;;;;;;;23.40;9.38;;;28.00;48.60;;;;;;5093491;28;20074;-62
2023/06/16 07:33:00;;;;;;;24.20;8.82;;;28.10;48.60;;;;;;5090211;28;20089;-63
2023/06/16 07:35:27;;;;;;;19.73;9.10;;;28.10;48.60;;;;;;5092623;28;20072;-62
2023/06/16 07:37:53;;;;;;;22.83;8.90;;;28.00;48.40;;;;;;5092792;28;20080;-63
2023/06/16 07:40:21;;;;;;;24.40;9.50;;;28.00;48.70;;;;;;5097717;28;20565;-61
2023/06/16 07:42:47;;;;;;;4.60;2.28;;;28.00;48.70;;;;;;5100048;28;20518;-61
2023/06/16 07:45:15;;;;;;;9.55;2.38;;;27.80;48.80;;;;;;5128382;22;20118;-61
2023/06/16 07:47:42;;;;;;;9.32;2.83;;;27.80;49.50;;;;;;5123920;27;20440;-60
2023/06/16 07:50:12;;;;;;;19.02;10.95;;;27.70;49.10;;;;;;5130490;27;20074;-61
2023/06/16 07:52:38;;;;;;;9.75;2.25;;;27.70;49.60;;;;;;5118228;27;20075;-61
2023/06/16 07:55:06;;;;;;;10.57;2.95;;;27.60;49.50;;;;;;5120709;27;20149;-62
2023/06/16 07:57:33;;;;;;;14.88;2.78;;;27.70;49.70;;;;;;5119538;27;20171;-64
2023/06/16 07:59:59;;;;;;;10.77;1.95;;;28.00;49.30;;;;;;5122654;27;20107;-64
2023/06/16 08:02:26;;;;;;;6.82;2.30;;;28.30;48.50;;;;;;5120303;27;20069;-63
2023/06/16 08:04:52;;;;;;;5.60;2.08;;;28.40;48.50;;;;;;5117908;27;20625;-63
2023/06/16 08:07:19;;;;;;;7.10;1.88;;;28.40;48.20;;;;;;5116302;27;20460;-63
2023/06/16 08:09:45;;;;;;;11.73;2.22;;;28.50;47.70;;;;;;5123154;27;20074;-64
2023/06/16 08:12:11;;;;;;;97.85;7.28;;;28.60;47.60;;;;;;5121054;27;20146;-64
2023/06/16 08:14:38;;;;;;;6.85;2.08;;;28.60;47.20;;;;;;5123172;27;20099;-64
2023/06/16 08:17:05;;;;;;;8.55;2.15;;;28.60;47.60;;;;;;5117639;27;20167;-64
2023/06/16 08:19:31;;;;;;;5.30;1.52;;;28.50;46.80;;;;;;5124308;27;20077;-64
2023/06/16 08:21:57;;;;;;;6.68;1.88;;;28.30;47.10;;;;;;5126128;27;20482;-64
2023/06/16 08:24:24;;;;;;;9.50;2.25;;;28.30;46.80;;;;;;5123788;27;20582;-62
2023/06/16 08:26:52;;;;;;;5.13;1.80;;;28.30;46.80;;;;;;5118868;27;20072;-63
2023/06/16 08:29:20;;;;;;;6.82;1.80;;;28.20;46.70;;;;;;5118157;27;20150;-62
2023/06/16 08:31:46;;;;;;;5.32;2.30;;;28.10;46.80;;;;;;5119163;27;20448;-62
2023/06/16 08:34:13;;;;;;;8.25;2.40;;;28.00;46.90;;;;;;5121715;27;20071;-63
2023/06/16 08:36:39;;;;;;;8.95;3.50;;;28.10;46.50;;;;;;5126677;27;20110;-64
2023/06/16 08:39:07;;;;;;;9.45;3.30;;;28.10;46.40;;;;;;5120296;27;20156;-64
2023/06/16 08:41:36;;;;;;;7.60;3.08;;;28.20;46.30;;;;;;5122102;27;20085;-65
2023/06/16 08:44:04;;;;;;;10.50;3.25;;;28.20;46.60;;;;;;5120091;27;20538;-64
2023/06/16 08:46:31;;;;;;;11.00;2.78;;;27.90;46.90;;;;;;5116828;27;20102;-64
2023/06/16 08:48:57;;;;;;;15.85;3.50;;;28.00;47.50;;;;;;5115091;27;20071;-63
2023/06/16 08:51:27;;;;;;;11.25;3.70;;;27.90;47.10;;;;;;5121567;27;20064;-63
2023/06/16 08:54:02;;;;;;;18.48;3.88;;;27.80;47.40;;;;;;5122725;27;20073;-62
2023/06/16 08:56:33;;;;;;;19.40;4.50;;;27.80;47.30;;;;;;5116791;27;20099;-64
2023/06/16 08:59:05;;;;;;;20.30;4.95;;;27.70;47.10;;;;;;5124345;27;20123;-63
2023/06/16 09:01:39;;;;;;;37.58;6.10;;;27.80;47.00;;;;;;5120726;27;20592;-64
2023/06/16 09:04:09;;;;;;;26.88;5.72;;;27.80;46.60;;;;;;5117345;27;20076;-62
2023/06/16 09:06:36;;;;;;;29.73;5.78;;;27.80;46.60;;;;;;5119603;27;20058;-63
2023/06/16 09:09:03;;;;;;;36.70;6.93;;;27.80;47.20;;;;;;5124776;27;21679;-63
2023/06/16 09:11:30;;;;;;;18.48;5.63;;;27.60;46.80;;;;;;5122018;27;20530;-64
2023/06/16 09:13:56;;;;;;;30.10;6.28;;;27.50;47.90;;;;;;5123282;27;20217;-63
2023/06/16 09:16:24;;;;;;;24.08;6.65;;;27.50;47.90;;;;;;5122564;27;20658;-63
2023/06/16 09:18:51;;;;;;;21.98;7.22;;;27.50;47.90;;;;;;5118439;27;20072;-63
2023/06/16 09:21:20;;;;;;;28.70;7.88;;;27.50;47.80;;;;;;5128526;22;20072;-63
2023/06/16 09:23:57;;;;;;;31.77;7.43;;;27.40;48.60;;;;;;5056239;28;20113;-63
2023/06/16 09:26:29;;;;;;;27.63;7.47;;;27.40;48.60;;;;;;5059876;28;20089;-63
2023/06/16 09:28:56;;;;;;;30.17;6.53;;;27.40;48.00;;;;;;5054729;28;20104;-63
2023/06/16 09:31:27;;;;;;;28.90;7.78;;;27.40;47.80;;;;;;5057795;28;20536;-64
2023/06/16 09:34:03;;;;;;;26.92;7.15;;;27.30;47.80;;;;;;5058584;28;20157;-64
2023/06/16 09:36:29;;;;;;;27.00;8.15;;;27.30;47.90;;;;;;5057255;28;20154;-64
2023/06/16 09:38:56;;;;;;;29.15;7.72;;;27.20;47.80;;;;;;5058271;28;20161;-64
2023/06/16 09:41:23;;;;;;;30.88;8.05;;;27.10;47.90;;;;;;5055331;28;20082;-62
2023/06/16 09:43:51;;;;;;;28.20;7.90;;;27.10;47.90;;;;;;5056541;28;20118;-64
2023/06/16 09:46:19;;;;;;;17.77;7.70;;;27.00;48.10;;;;;;5057184;28;20076;-63
2023/06/16 09:48:47;;;;;;;28.70;8.00;;;26.90;49.70;;;;;;5061325;28;20100;-63
2023/06/16 09:51:23;;;;;;;27.13;7.32;;;26.90;49.70;;;;;;5057157;28;20099;-60
2023/06/16 09:53:51;;;;;;;28.30;7.78;;;26.90;49.70;;;;;;5060539;28;20070;-64
2023/06/16 09:56:19;;;;;;;29.10;8.02;;;26.80;50.00;;;;;;5035319;28;20080;-63
2023/06/16 09:58:47;;;;;;;35.42;8.02;;;26.80;49.80;;;;;;5053702;28;20498;-63
2023/06/16 10:01:14;;;;;;;28.15;8.20;;;26.80;49.60;;;;;;5055553;28;20453;-64
2023/06/16 10:03:43;;;;;;;27.88;9.18;;;26.80;49.60;;;;;;5058683;28;20084;-64
2023/06/16 10:06:20;;;;;;;37.47;9.50;;;26.80;49.90;;;;;;5053790;28;20094;-65
2023/06/16 10:08:49;;;;;;;27.15;7.97;;;26.70;49.70;;;;;;5061162;28;20067;-62
2023/06/16 10:11:16;;;;;;;26.10;9.10;;;26.70;49.80;;;;;;5058356;28;20070;-63
2023/06/16 10:13:54;;;;;;;28.92;8.77;;;26.60;50.60;;;;;;5059538;28;20081;-63
2023/06/16 10:16:25;;;;;;;44.20;9.50;;;26.60;51.20;;;;;;5062857;28;20536;-64
2023/06/16 10:18:59;;;;;;;42.35;9.63;;;26.60;51.00;;;;;;5061484;28;20097;-64
2023/06/16 10:21:26;;;;;;;26.38;8.98;;;26.60;51.00;;;;;;5061952;28;20225;-63
2023/06/16 10:23:53;;;;;;;40.10;8.30;;;26.50;51.20;;;;;;5058480;28;20145;-62
2023/06/16 10:26:20;;;;;;;26.75;7.88;;;26.50;51.10;;;;;;5062530;28;20071;-64
2023/06/16 10:28:47;;;;;;;34.20;7.35;;;26.40;51.40;;;;;;5062901;28;20072;-63
2023/06/16 10:31:16;;;;;;;37.67;7.28;;;26.30;51.70;;;;;;5053382;28;20059;-62
2023/06/16 10:33:54;;;;;;;40.13;7.05;;;26.30;53.40;;;;;;5056372;28;20166;-61
2023/06/16 10:36:27;;;;;;;25.83;6.55;;;26.30;52.20;;;;;;5055782;28;20076;-64
2023/06/16 10:39:01;;;;;;;29.85;7.25;;;26.20;52.00;;;;;;5060128;28;20536;-63
2023/06/16 10:41:31;;;;;;;28.52;7.47;;;26.30;52.00;;;;;;5059356;28;20071;-64
2023/06/16 10:44:30;;;;;;;43.15;7.95;;;26.20;52.10;;;;;;5055307;28;20163;-62
2023/06/16 10:47:09;;;;;;;42.72;8.23;;;26.20;51.90;;;;;;5048956;28;20163;-64
2023/06/16 10:49:44;;;;;;;47.88;9.15;;;26.20;51.90;;;;;;5057327;28;20071;-63
2023/06/16 10:52:33;;;;;;;32.08;8.45;;;26.20;51.80;;;;;;5057593;28;20116;-63
2023/06/16 10:55:17;;;;;;;43.45;9.50;;;26.10;51.90;;;;;;5058370;28;20076;-62
2023/06/16 10:57:46;;;;;;;41.50;8.80;;;25.90;52.50;;;;;;5062768;28;20194;-64
2023/06/16 11:00:16;;;;;;;31.77;8.73;;;25.90;53.40;;;;;;5052811;28;20079;-62
2023/06/16 11:02:50;;;;;;;36.03;9.48;;;26.00;53.50;;;;;;5055531;28;20179;-64
2023/06/16 11:05:18;;;;;;;43.35;11.15;;;26.00;53.10;;;;;;5060069;28;20084;-64
2023/06/16 11:08:06;;;;;;;36.80;9.23;;;26.00;53.00;;;;;;5054787;28;20091;-64
2023/06/16 11:10:53;;;;;;;44.92;10.68;;;26.00;52.60;;;;;;5065693;28;20086;-63
2023/06/16 11:13:26;;;;;;;44.15;10.98;;;25.80;53.10;;;;;;5055991;28;20154;-62
2023/06/16 11:15:56;;;;;;;36.00;9.75;;;25.70;54.40;;;;;;5051831;28;20536;-60
2023/06/16 11:18:39;;;;;;;38.42;9.55;;;25.70;54.50;;;;;;5053184;28;20068;-62
2023/06/16 11:21:07;;;;;;;32.22;9.70;;;25.70;54.20;;;;;;5062553;28;20067;-61
2023/06/16 11:23:34;;;;;;;33.90;10.00;;;25.70;53.40;;;;;;5056378;28;20470;-63
2023/06/16 11:26:09;;;;;;;53.65;10.20;;;25.70;53.50;;;;;;5055275;28;20073;-62
2023/06/16 11:28:43;;;;;;;38.85;9.32;;;25.70;53.30;;;;;;5055843;28;20082;-64
2023/06/16 11:31:10;;;;;;;50.00;10.00;;;25.70;53.90;;;;;;5062346;28;20146;-63
2023/06/16 11:33:38;;;;;;;45.08;11.52;;;25.60;53.40;;;;;;5057639;28;20072;-63
2023/06/16 11:36:20;;;;;;;43.90;10.52;;;25.50;53.80;;;;;;5057640;28;20446;-63
2023/06/16 11:38:55;;;;;;;47.05;11.13;;;25.50;53.70;;;;;;5058805;28;20071;-62
2023/06/16 11:41:32;;;;;;;36.67;11.75;;;25.40;53.70;;;;;;5065775;28;20156;-64
2023/06/16 11:43:59;;;;;;;38.75;10.98;;;25.40;53.90;;;;;;5060460;28;20092;-64
2023/06/16 11:46:27;;;;;;;35.50;12.98;;;25.40;54.00;;;;;;5056009;28;20074;-64
2023/06/16 11:48:53;;;;;;;43.40;13.95;;;25.40;55.10;;;;;;5055895;28;20068;-65
2023/06/16 11:51:22;;;;;;;51.88;14.30;;;25.20;54.60;;;;;;5062147;28;20208;-64
2023/06/16 11:53:48;;;;;;;46.00;15.18;;;25.10;55.00;;;;;;5055776;28;20075;-63
2023/06/16 11:56:17;;;;;;;39.08;14.10;;;25.20;54.80;;;;;;5055743;28;20564;-63
2023/06/16 11:58:45;;;;;;;47.00;15.73;;;25.30;56.30;;;;;;5055691;28;20071;-62
2023/06/16 12:01:16;;;;;;;56.47;15.68;;;25.30;56.20;;;;;;5056772;28;20073;-62
2023/06/16 12:03:46;;;;;;;55.42;17.23;;;25.30;54.50;;;;;;5063736;28;20083;-62
2023/06/16 12:06:13;;;;;;;43.58;14.98;;;25.20;54.30;;;;;;5058341;28;20074;-63
2023/06/16 12:08:48;;;;;;;45.45;16.20;;;25.10;55.40;;;;;;5062132;28;20138;-62
2023/06/16 12:11:28;;;;;;;44.75;15.95;;;25.00;55.50;;;;;;5062927;28;20071;-61
2023/06/16 12:13:56;;;;;;;49.15;15.35;;;25.00;55.50;;;;;;5063616;28;20101;-63
2023/06/16 12:16:23;;;;;;;49.67;15.60;;;25.00;54.60;;;;;;5061565;28;20080;-63
2023/06/16 12:18:53;;;;;;;43.70;14.55;;;25.00;54.50;;;;;;5064085;28;20202;-64
2023/06/16 12:21:22;;;;;;;42.85;12.25;;;24.90;54.50;;;;;;5063978;28;20084;-64
2023/06/16 12:23:55;;;;;;;47.90;11.80;;;25.00;54.50;;;;;;5067695;28;20103;-61
2023/06/16 12:26:28;;;;;;;42.42;11.25;;;25.00;54.50;;;;;;5062124;28;20115;-62
2023/06/16 12:28:56;;;;;;;37.63;11.18;;;25.00;54.40;;;;;;5063039;28;20060;-62
2023/06/16 12:31:28;;;;;;;53.22;11.07;;;24.90;56.00;;;;;;5066897;28;20362;-63
2023/06/16 12:33:56;;;;;;;57.10;12.00;;;24.90;55.20;;;;;;5059404;28;20134;-63
2023/06/16 12:36:23;;;;;;;56.22;12.20;;;24.90;54.70;;;;;;5058170;28;20093;-63
2023/06/16 12:38:50;;;;;;;63.45;11.75;;;24.90;54.90;;;;;;5063363;28;20069;-62
2023/06/16 12:41:20;;;;;;;43.88;12.80;;;24.90;55.00;;;;;;5068492;28;20081;-62
2023/06/16 12:43:48;;;;;;;48.72;12.48;;;24.90;55.00;;;;;;5062214;28;20179;-65
2023/06/16 12:46:15;;;;;;;46.90;11.13;;;24.90;54.90;;;;;;5058923;28;20076;-63